createdAt,value
2022-10-03T00:00:14.447Z,100501.10
2022-10-03T00:03:31.027Z,100502.83
2022-10-03T00:06:09.462Z,100497.25
2022-10-03T00:09:01.592Z,100488.02
2022-10-03T00:11:48.994Z,100480.58
2022-10-03T00:14:28.255Z,100477.91
2022-10-03T00:17:07.166Z,100473.96
2022-10-03T00:19:52.247Z,100463.23
2022-10-03T00:22:36.678Z,100453.73
2022-10-03T00:25:31.893Z,100450.36
2022-10-03T00:28:19.898Z,100443.50
2022-10-03T00:31:09.524Z,100438.23
2022-10-03T00:34:01.461Z,100433.09
2022-10-03T00:36:45.479Z,100437.48
2022-10-03T00:39:45.409Z,100438.58
2022-10-03T00:42:52.595Z,100437.36
2022-10-03T00:45:42.484Z,100444.36
2022-10-03T00:48:47.075Z,100451.10
2022-10-03T00:51:49.172Z,100448.13
2022-10-03T00:54:43.787Z,100443.77
2022-10-03T00:57:38.984Z,100436.27
2022-10-03T01:00:20.562Z,100428.70
2022-10-03T01:03:10.806Z,100421.80
2022-10-03T01:05:57.452Z,100424.41
2022-10-03T01:08:59.039Z,100416.73
2022-10-03T01:11:43.221Z,100417.69
2022-10-03T01:14:28.879Z,100421.63
2022-10-03T01:17:13.164Z,100425.64
2022-10-03T01:20:20.068Z,100430.27
2022-10-03T01:23:16.120Z,100448.52
2022-10-03T01:25:52.392Z,100451.77
2022-10-03T01:28:58.880Z,100450.03
2022-10-03T01:31:42.209Z,100439.59
2022-10-03T01:34:23.678Z,100442.62
2022-10-03T01:37:06.535Z,100441.84
2022-10-03T01:39:50.657Z,100451.23
2022-10-03T01:42:36.916Z,100453.42
2022-10-03T01:45:16.870Z,100446.88
2022-10-03T01:47:51.676Z,100452.48
2022-10-03T01:50:31.957Z,100453.09
2022-10-03T01:53:09.852Z,100448.56
2022-10-03T01:55:53.600Z,100462.40
2022-10-03T01:58:36.433Z,100466.71
2022-10-03T02:01:17.453Z,100466.33
2022-10-03T02:03:56.154Z,100473.92
2022-10-03T02:06:43.939Z,100468.29
2022-10-03T02:09:28.888Z,100465.96
2022-10-03T02:12:17.006Z,100470.58
2022-10-03T02:15:00.649Z,100471.58
2022-10-03T02:17:47.972Z,100470.27
2022-10-03T02:20:31.548Z,100467.36
2022-10-03T02:23:15.915Z,100467.67
2022-10-03T02:26:16.027Z,100467.17
2022-10-03T02:29:10.743Z,100461.48
2022-10-03T02:32:13.407Z,100460.34
2022-10-03T02:35:27.281Z,100452.36
2022-10-03T02:38:19.697Z,100459.63
2022-10-03T02:41:15.331Z,100455.75
2022-10-03T02:44:16.558Z,100463.73
2022-10-03T02:47:32.551Z,100453.20
2022-10-03T02:50:49.291Z,100459.94
2022-10-03T02:53:44.704Z,100459.76
2022-10-03T02:56:48.307Z,100458.20
2022-10-03T02:59:43.904Z,100458.71
2022-10-03T03:02:41.535Z,100450.94
2022-10-03T03:05:34.416Z,100456.22
2022-10-03T03:08:29.152Z,100458.63
2022-10-03T03:11:39.715Z,100451.66
2022-10-03T03:14:50.610Z,100460.96
2022-10-03T03:17:36.335Z,100470.95
2022-10-03T03:20:23.152Z,100476.00
2022-10-03T03:23:14.692Z,100475.02
2022-10-03T03:26:23.527Z,100469.30
2022-10-03T03:29:08.180Z,100470.03
2022-10-03T03:31:51.454Z,100461.89
2022-10-03T03:34:30.108Z,100463.56
2022-10-03T03:37:09.864Z,100457.23
2022-10-03T03:40:05.477Z,100446.95
2022-10-03T03:42:53.813Z,100441.27
2022-10-03T03:45:41.510Z,100435.79
2022-10-03T03:48:31.219Z,100428.16
2022-10-03T03:51:21.540Z,100439.61
2022-10-03T03:54:12.942Z,100449.36
2022-10-03T03:57:15.758Z,100444.11
2022-10-03T04:00:05.101Z,100436.44
2022-10-03T04:02:54.001Z,100436.02
2022-10-03T04:05:48.347Z,100435.82
2022-10-03T04:08:35.805Z,100437.05
2022-10-03T04:11:22.746Z,100438.42
2022-10-03T04:14:22.788Z,100450.16
2022-10-03T04:17:38.659Z,100448.80
2022-10-03T04:20:20.228Z,100456.23
2022-10-03T04:23:14.178Z,100449.02
2022-10-03T04:25:55.755Z,100451.86
2022-10-03T04:28:48.205Z,100444.98
2022-10-03T04:31:34.385Z,100444.77
2022-10-03T04:34:26.271Z,100446.29
2022-10-03T04:37:16.718Z,100447.60
2022-10-03T04:39:58.659Z,100447.83
2022-10-03T04:42:43.784Z,100448.80
2022-10-03T04:45:35.068Z,100444.70
2022-10-03T04:48:17.852Z,100443.29
2022-10-03T04:51:04.439Z,100441.63
2022-10-03T04:53:48.962Z,100440.73
2022-10-03T04:56:32.546Z,100434.48
2022-10-03T04:59:25.000Z,100436.41
2022-10-03T05:02:03.432Z,100432.32
2022-10-03T05:04:45.400Z,100426.20
2022-10-03T05:07:27.007Z,100427.59
2022-10-03T05:10:10.363Z,100422.86
2022-10-03T05:12:55.241Z,100424.77
2022-10-03T05:15:33.060Z,100422.62
2022-10-03T05:18:15.459Z,100424.92
2022-10-03T05:20:57.649Z,100432.86
2022-10-03T05:23:46.251Z,100435.45
2022-10-03T05:26:45.791Z,100432.23
2022-10-03T05:29:34.004Z,100425.46
2022-10-03T05:32:21.740Z,100423.76
2022-10-03T05:35:08.631Z,100422.39
2022-10-03T05:38:13.587Z,100420.06
2022-10-03T05:40:52.328Z,100415.50
2022-10-03T05:43:38.504Z,100417.86
2022-10-03T05:46:23.864Z,100420.31
2022-10-03T05:49:05.860Z,100421.80
2022-10-03T05:51:52.945Z,100425.71
2022-10-03T05:55:00.494Z,100424.70
2022-10-03T05:57:59.447Z,100421.43
2022-10-03T06:00:42.775Z,100422.87
2022-10-03T06:03:38.527Z,100433.33
2022-10-03T06:06:25.731Z,100436.17
2022-10-03T06:09:18.629Z,100430.08
2022-10-03T06:12:07.368Z,100432.61
2022-10-03T06:15:03.118Z,100431.90
2022-10-03T06:17:59.185Z,100431.98
2022-10-03T06:21:07.604Z,100431.17
2022-10-03T06:24:14.899Z,100432.23
2022-10-03T06:27:04.799Z,100433.84
2022-10-03T06:30:00.603Z,100437.79
2022-10-03T06:33:04.129Z,100441.41
2022-10-03T06:36:13.032Z,100440.95
2022-10-03T06:39:31.441Z,100442.58
2022-10-03T06:42:25.564Z,100452.39
2022-10-03T06:45:51.341Z,100456.77
2022-10-03T06:48:46.954Z,100459.13
2022-10-03T06:51:48.172Z,100462.63
2022-10-03T06:54:55.922Z,100460.48
2022-10-03T06:57:44.330Z,100461.96
2022-10-03T07:00:21.781Z,100458.38
2022-10-03T07:03:21.738Z,100457.61
2022-10-03T07:06:22.255Z,100454.98
2022-10-03T07:09:48.486Z,100453.05
2022-10-03T07:12:54.162Z,100449.56
2022-10-03T07:16:25.962Z,100446.22
2022-10-03T07:19:15.293Z,100445.52
2022-10-03T07:22:21.552Z,100443.42
2022-10-03T07:25:38.058Z,100445.80
2022-10-03T07:28:39.912Z,100445.45
2022-10-03T07:31:22.491Z,100452.39
2022-10-03T07:34:22.945Z,100451.59
2022-10-03T07:37:40.829Z,100456.48
2022-10-03T07:40:48.508Z,100456.93
2022-10-03T07:43:56.206Z,100450.78
2022-10-03T07:46:54.681Z,100449.75
2022-10-03T07:49:58.688Z,100447.55
2022-10-03T07:52:54.780Z,100443.17
2022-10-03T07:55:49.209Z,100435.64
2022-10-03T07:58:44.310Z,100435.90
2022-10-03T08:01:37.420Z,100432.61
2022-10-03T08:05:04.220Z,100427.36
2022-10-03T08:07:57.705Z,100425.77
2022-10-03T08:10:51.420Z,100417.52
2022-10-03T08:13:36.473Z,100415.98
2022-10-03T08:16:29.279Z,100412.99
2022-10-03T08:19:22.244Z,100412.89
2022-10-03T08:22:07.023Z,100407.63
2022-10-03T08:25:04.124Z,100404.87
2022-10-03T08:27:53.185Z,100401.70
2022-10-03T08:30:29.283Z,100405.30
2022-10-03T08:33:19.116Z,100402.91
2022-10-03T08:36:15.033Z,100401.42
2022-10-03T08:39:24.211Z,100395.55
2022-10-03T08:42:18.944Z,100391.17
2022-10-03T08:45:34.388Z,100385.80
2022-10-03T08:48:36.681Z,100378.42
2022-10-03T08:51:50.324Z,100376.97
2022-10-03T08:54:57.831Z,100378.05
2022-10-03T08:57:49.523Z,100381.88
2022-10-03T09:00:24.975Z,100378.12
2022-10-03T09:03:36.889Z,100376.69
2022-10-03T09:07:12.227Z,100376.31
2022-10-03T09:10:18.363Z,100372.84
2022-10-03T09:13:14.119Z,100367.59
2022-10-03T09:16:16.187Z,100365.20
2022-10-03T09:19:13.112Z,100366.95
2022-10-03T09:22:23.716Z,100362.55
2022-10-03T09:25:22.921Z,100360.26
2022-10-03T09:28:27.614Z,100355.55
2022-10-03T09:31:16.671Z,100354.23
2022-10-03T09:34:15.892Z,100346.33
2022-10-03T09:37:18.063Z,100345.85
2022-10-03T09:40:25.876Z,100344.98
2022-10-03T09:43:26.424Z,100344.40
2022-10-03T09:46:35.984Z,100337.14
2022-10-03T09:49:44.802Z,100341.95
2022-10-03T09:52:35.088Z,100343.95
2022-10-03T09:55:25.376Z,100336.66
2022-10-03T09:58:21.016Z,100335.69
2022-10-03T10:01:21.290Z,100333.56
2022-10-03T10:04:32.625Z,100335.30
2022-10-03T10:07:41.796Z,100339.19
2022-10-03T10:11:04.647Z,100336.11
2022-10-03T10:14:07.894Z,100332.66
2022-10-03T10:17:11.439Z,100328.27
2022-10-03T10:20:05.368Z,100324.10
2022-10-03T10:23:08.164Z,100316.65
2022-10-03T10:26:15.589Z,100325.02
2022-10-03T10:29:27.136Z,100322.77
2022-10-03T10:32:37.811Z,100320.56
2022-10-03T10:35:44.696Z,100314.95
2022-10-03T10:38:32.100Z,100309.59
2022-10-03T10:41:38.019Z,100307.37
2022-10-03T10:44:43.859Z,100316.48
2022-10-03T10:47:42.408Z,100309.88
2022-10-03T10:50:52.573Z,100305.58
2022-10-03T10:53:55.239Z,100298.63
2022-10-03T10:57:02.224Z,100300.50
2022-10-03T11:00:19.199Z,100295.61
2022-10-03T11:03:33.068Z,100289.86
2022-10-03T11:06:44.319Z,100285.27
2022-10-03T11:10:16.455Z,100282.59
2022-10-03T11:13:41.477Z,100284.96
2022-10-03T11:16:59.287Z,100281.67
2022-10-03T11:20:18.839Z,100279.13
2022-10-03T11:23:23.939Z,100288.43
2022-10-03T11:26:25.689Z,100283.92
2022-10-03T11:29:42.888Z,100272.41
2022-10-03T11:32:47.237Z,100267.68
2022-10-03T11:35:58.811Z,100257.58
2022-10-03T11:38:35.907Z,100253.45
2022-10-03T11:41:19.294Z,100255.29
2022-10-03T11:44:15.382Z,100249.35
2022-10-03T11:47:16.485Z,100248.25
2022-10-03T11:50:20.217Z,100250.14
2022-10-03T11:53:08.606Z,100246.27
2022-10-03T11:55:46.879Z,100239.15
2022-10-03T11:58:36.116Z,100228.89
2022-10-03T12:01:25.427Z,100228.28
2022-10-03T12:04:05.232Z,100226.54
2022-10-03T12:07:18.288Z,100213.94
2022-10-03T12:10:02.965Z,100217.40
2022-10-03T12:12:43.504Z,100216.34
2022-10-03T12:15:31.436Z,100209.00
2022-10-03T12:18:11.367Z,100206.95
2022-10-03T12:20:59.581Z,100209.36
2022-10-03T12:23:51.012Z,100230.77
2022-10-03T12:26:32.836Z,100242.44
2022-10-03T12:29:09.019Z,100255.69
2022-10-03T12:31:49.205Z,100257.10
2022-10-03T12:34:39.075Z,100257.70
2022-10-03T12:37:43.897Z,100257.32
2022-10-03T12:40:25.182Z,100271.33
2022-10-03T12:43:12.079Z,100281.66
2022-10-03T12:45:49.972Z,100295.38
2022-10-03T12:48:43.169Z,100309.73
2022-10-03T12:51:24.161Z,100311.86
2022-10-03T12:54:08.565Z,100312.20
2022-10-03T12:56:50.060Z,100316.45
2022-10-03T12:59:38.512Z,100308.10
2022-10-03T13:02:30.778Z,100296.89
2022-10-03T13:05:31.370Z,100292.30
2022-10-03T13:08:07.502Z,100291.30
2022-10-03T13:10:43.772Z,100289.19
2022-10-03T13:13:30.311Z,100286.16
2022-10-03T13:16:21.235Z,100284.35
2022-10-03T13:19:06.208Z,100290.50
2022-10-03T13:22:06.317Z,100288.27
2022-10-03T13:24:46.326Z,100283.09
2022-10-03T13:27:33.427Z,100283.45
2022-10-03T13:30:15.260Z,100285.54
2022-10-03T13:32:49.865Z,100288.08
2022-10-03T13:35:56.063Z,100292.67
2022-10-03T13:38:55.272Z,100296.39
2022-10-03T13:41:39.229Z,100301.55
2022-10-03T13:44:22.715Z,100302.91
2022-10-03T13:47:03.079Z,100299.69
2022-10-03T13:49:40.578Z,100299.95
2022-10-03T13:52:23.580Z,100295.02
2022-10-03T13:55:19.611Z,100289.33
2022-10-03T13:58:07.157Z,100291.66
2022-10-03T14:00:52.618Z,100285.26
2022-10-03T14:03:35.245Z,100279.96
2022-10-03T14:06:20.423Z,100286.55
2022-10-03T14:09:21.557Z,100286.55
2022-10-03T14:12:01.816Z,100283.41
2022-10-03T14:14:58.983Z,100283.41
2022-10-03T14:17:41.585Z,100284.77
2022-10-03T14:20:29.886Z,100287.02
2022-10-03T14:23:16.653Z,100289.63
2022-10-03T14:25:58.144Z,100291.80
2022-10-03T14:28:41.071Z,100289.52
2022-10-03T14:31:20.993Z,100289.41
2022-10-03T14:34:00.535Z,100285.63
2022-10-03T14:36:42.551Z,100280.55
2022-10-03T14:39:29.136Z,100285.02
2022-10-03T14:42:25.764Z,100282.79
2022-10-03T14:45:01.256Z,100285.35
2022-10-03T14:47:39.031Z,100285.36
2022-10-03T14:50:18.968Z,100282.77
2022-10-03T14:53:02.244Z,100281.84
2022-10-03T14:55:40.410Z,100286.59
2022-10-03T14:58:22.396Z,100285.11
2022-10-03T15:01:03.468Z,100284.42
2022-10-03T15:03:40.652Z,100285.38
2022-10-03T15:06:37.400Z,100283.16
2022-10-03T15:09:13.274Z,100287.70
2022-10-03T15:11:52.465Z,100286.96
2022-10-03T15:14:27.133Z,100291.48
2022-10-03T15:17:01.867Z,100289.91
2022-10-03T15:19:44.288Z,100294.77
2022-10-03T15:22:29.451Z,100304.02
2022-10-03T15:25:07.332Z,100308.57
2022-10-03T15:27:43.510Z,100312.58
2022-10-03T15:30:27.871Z,100322.52
2022-10-03T15:33:15.069Z,100325.45
2022-10-03T15:35:52.392Z,100330.45
2022-10-03T15:38:27.909Z,100331.37
2022-10-03T15:41:12.951Z,100330.68
2022-10-03T15:43:57.048Z,100337.38
2022-10-03T15:46:37.096Z,100338.60
2022-10-03T15:49:26.244Z,100340.11
2022-10-03T15:52:01.188Z,100344.22
2022-10-03T15:54:38.786Z,100346.10
2022-10-03T15:57:20.252Z,100349.41
2022-10-03T16:00:02.056Z,100361.96
2022-10-03T16:02:38.685Z,100365.29
2022-10-03T16:05:20.659Z,100361.16
2022-10-03T16:08:03.054Z,100365.90
2022-10-03T16:10:42.489Z,100371.98
2022-10-03T16:13:28.850Z,100367.77
2022-10-03T16:16:12.943Z,100371.36
2022-10-03T16:19:01.360Z,100376.35
2022-10-03T16:21:49.120Z,100379.27
2022-10-03T16:24:32.967Z,100384.58
2022-10-03T16:27:13.986Z,100390.91
2022-10-03T16:29:54.372Z,100393.63
2022-10-03T16:32:31.277Z,100393.20
2022-10-03T16:35:04.682Z,100394.66
2022-10-03T16:37:42.575Z,100396.76
2022-10-03T16:40:23.135Z,100403.07
2022-10-03T16:43:00.439Z,100410.06
2022-10-03T16:45:36.859Z,100416.88
2022-10-03T16:48:37.183Z,100420.61
2022-10-03T16:51:17.044Z,100420.10
2022-10-03T16:53:52.516Z,100427.09
2022-10-03T16:56:28.747Z,100432.29
2022-10-03T16:59:13.023Z,100432.50
2022-10-03T17:01:51.228Z,100435.73
2022-10-03T17:04:28.273Z,100437.20
2022-10-03T17:07:03.562Z,100440.05
2022-10-03T17:09:42.760Z,100438.99
2022-10-03T17:12:23.936Z,100438.33
2022-10-03T17:14:58.610Z,100440.84
2022-10-03T17:17:38.001Z,100439.79
2022-10-03T17:20:16.597Z,100448.11
2022-10-03T17:22:56.679Z,100446.77
2022-10-03T17:25:45.773Z,100451.16
2022-10-03T17:28:23.556Z,100452.13
2022-10-03T17:31:00.588Z,100453.50
2022-10-03T17:33:41.786Z,100463.04
2022-10-03T17:36:49.313Z,100467.70
2022-10-03T17:39:33.246Z,100465.55
2022-10-03T17:42:17.315Z,100461.42
2022-10-03T17:44:59.923Z,100461.48
2022-10-03T17:47:44.032Z,100463.92
2022-10-03T17:50:21.126Z,100467.27
2022-10-03T17:52:55.371Z,100469.04
2022-10-03T17:55:31.880Z,100470.89
2022-10-03T17:58:07.991Z,100467.98
2022-10-03T18:01:02.611Z,100470.22
2022-10-03T18:03:39.061Z,100469.52
2022-10-03T18:06:38.851Z,100471.30
2022-10-03T18:09:23.057Z,100472.30
2022-10-03T18:12:04.201Z,100465.65
2022-10-03T18:14:57.868Z,100467.30
2022-10-03T18:17:41.560Z,100464.34
2022-10-03T18:20:32.196Z,100465.84
2022-10-03T18:23:09.298Z,100469.21
2022-10-03T18:26:19.163Z,100471.05
2022-10-03T18:29:01.444Z,100474.31
2022-10-03T18:31:36.253Z,100473.33
2022-10-03T18:34:15.251Z,100476.33
2022-10-03T18:36:49.694Z,100479.30
2022-10-03T18:39:26.584Z,100486.25
2022-10-03T18:42:02.054Z,100486.69
2022-10-03T18:44:36.269Z,100489.91
2022-10-03T18:47:21.323Z,100491.56
2022-10-03T18:50:05.983Z,100496.59
2022-10-03T18:52:46.756Z,100494.06
2022-10-03T18:55:26.616Z,100495.54
2022-10-03T18:58:05.999Z,100491.64
2022-10-03T19:00:52.253Z,100488.59
2022-10-03T19:03:32.904Z,100487.86
2022-10-03T19:06:08.313Z,100491.66
2022-10-03T19:08:44.403Z,100490.17
2022-10-03T19:11:27.911Z,100492.39
2022-10-03T19:14:10.247Z,100497.86
2022-10-03T19:17:10.536Z,100495.13
2022-10-03T19:19:58.108Z,100503.16
2022-10-03T19:22:35.440Z,100506.35
2022-10-03T19:25:19.117Z,100505.17
2022-10-03T19:27:58.699Z,100502.90
2022-10-03T19:30:33.024Z,100506.79
2022-10-03T19:33:08.287Z,100505.41
2022-10-03T19:35:47.718Z,100506.13
2022-10-03T19:38:24.452Z,100510.95
2022-10-03T19:41:01.626Z,100519.70
2022-10-03T19:43:43.138Z,100522.63
2022-10-03T19:46:25.168Z,100526.52
2022-10-03T19:49:32.004Z,100523.00
2022-10-03T19:52:25.445Z,100525.80
2022-10-03T19:55:03.054Z,100525.73
2022-10-03T19:57:42.695Z,100530.96
2022-10-03T20:00:28.373Z,100529.17
2022-10-03T20:03:16.505Z,100529.74
2022-10-03T20:05:58.834Z,100538.89
2022-10-03T20:08:39.796Z,100540.39
2022-10-03T20:11:30.816Z,100544.60
2022-10-03T20:14:04.104Z,100546.37
2022-10-03T20:16:45.358Z,100546.64
2022-10-03T20:19:24.860Z,100546.67
2022-10-03T20:22:04.401Z,100548.92
2022-10-03T20:24:40.407Z,100549.69
2022-10-03T20:27:25.996Z,100558.49
2022-10-03T20:30:21.651Z,100563.09
2022-10-03T20:32:56.643Z,100564.88
2022-10-03T20:35:33.432Z,100567.65
2022-10-03T20:38:14.601Z,100569.13
2022-10-03T20:40:53.960Z,100572.07
2022-10-03T20:43:41.896Z,100569.56
2022-10-03T20:46:26.424Z,100568.92
2022-10-03T20:49:24.273Z,100570.42
2022-10-03T20:52:02.435Z,100572.69
2022-10-03T20:54:48.566Z,100578.02
2022-10-03T20:57:20.774Z,100579.90
2022-10-03T21:00:04.645Z,100578.20
2022-10-03T21:02:49.634Z,100581.73
2022-10-03T21:05:26.666Z,100578.44
2022-10-03T21:08:02.103Z,100570.14
2022-10-03T21:10:38.300Z,100570.95
2022-10-03T21:13:16.368Z,100576.27
2022-10-03T21:15:53.620Z,100583.42
2022-10-03T21:18:28.436Z,100580.42
2022-10-03T21:21:13.503Z,100582.95
2022-10-03T21:23:51.465Z,100583.96
2022-10-03T21:26:26.897Z,100579.70
2022-10-03T21:29:19.823Z,100579.17
2022-10-03T21:31:58.567Z,100578.71
2022-10-03T21:34:40.580Z,100586.09
2022-10-03T21:37:19.599Z,100589.40
2022-10-03T21:40:06.959Z,100595.52
2022-10-03T21:42:53.609Z,100599.21
2022-10-03T21:45:37.209Z,100598.19
2022-10-03T21:48:20.609Z,100604.38
2022-10-03T21:50:58.502Z,100599.85
2022-10-03T21:53:42.063Z,100597.18
2022-10-03T21:56:29.359Z,100596.23
2022-10-03T21:59:16.384Z,100592.29
2022-10-03T22:01:56.393Z,100591.80
2022-10-03T22:04:36.303Z,100592.77
2022-10-03T22:07:15.039Z,100586.15
2022-10-03T22:09:55.900Z,100590.27
2022-10-03T22:12:32.490Z,100588.67
2022-10-03T22:15:11.710Z,100586.25
2022-10-03T22:17:51.529Z,100594.98
2022-10-03T22:20:26.341Z,100590.31
2022-10-03T22:23:16.480Z,100597.42
2022-10-03T22:25:59.995Z,100600.52
2022-10-03T22:28:42.391Z,100600.87
2022-10-03T22:31:23.796Z,100602.39
2022-10-03T22:34:08.660Z,100598.21
2022-10-03T22:36:42.029Z,100595.52
2022-10-03T22:39:16.959Z,100589.83
2022-10-03T22:41:54.268Z,100586.48
2022-10-03T22:44:32.880Z,100584.74
2022-10-03T22:47:08.920Z,100583.44
2022-10-03T22:49:44.283Z,100581.29
2022-10-03T22:52:22.417Z,100584.09
2022-10-03T22:54:56.588Z,100587.31
2022-10-03T22:57:33.748Z,100588.88
2022-10-03T23:00:13.429Z,100589.40
2022-10-03T23:02:50.692Z,100588.50
2022-10-03T23:05:34.355Z,100588.73
2022-10-03T23:08:16.634Z,100591.23
2022-10-03T23:10:56.407Z,100588.67
2022-10-03T23:13:36.268Z,100587.48
2022-10-03T23:16:20.385Z,100585.73
2022-10-03T23:19:10.285Z,100590.35
2022-10-03T23:21:49.576Z,100590.45
2022-10-03T23:24:30.390Z,100589.05
2022-10-03T23:27:36.610Z,100587.80
2022-10-03T23:30:54.319Z,100590.95
2022-10-03T23:33:53.342Z,100590.71
2022-10-03T23:36:26.889Z,100596.27
2022-10-03T23:39:01.513Z,100596.73
2022-10-03T23:41:57.381Z,100598.52
2022-10-03T23:44:35.662Z,100598.29
2022-10-03T23:47:11.770Z,100596.96
2022-10-03T23:49:47.443Z,100597.23
2022-10-03T23:52:25.224Z,100601.56
2022-10-03T23:55:02.539Z,100602.04
2022-10-03T23:57:39.624Z,100602.77
